Time;durP1;ratioP1;P1;durP2;ratioP2;P2;SDS_P1;SDS_P2;PMS_P1;PMS_P2;Temp;Humidity;BMP_temperature;BMP_pressure;BME280_temperature;BME280_humidity;BME280_pressure;Samples;Min_cycle;Max_cycle;Signal;HPM_P1;HPM_P2
2022/05/15 00:01:03;;;;;;;;;;;;;;;23.07;51.91;99554.72;2084092;28;20700;-40
2022/05/15 00:02:03;;;;;;;;;;;;;;;23.08;51.91;99559.19;2083658;28;19904;-40
2022/05/15 00:03:12;;;;;;;;;;;;;;;23.08;51.87;99559.19;2081184;28;19953;-40
2022/05/15 00:04:13;;;;;;;;;;;;;;;23.08;51.94;99558.34;2084952;28;20140;-40
2022/05/15 00:05:13;;;;;;;;;;;;;;;23.08;51.90;99558.34;2082397;28;20507;-40
2022/05/15 00:06:13;;;;;;;;;;;;;;;23.06;51.88;99555.78;2083355;28;20233;-40
2022/05/15 00:07:13;;;;;;;;;;;;;;;23.07;51.83;99560.22;2080834;28;20171;-40
2022/05/15 00:08:14;;;;;;;;;;;;;;;23.08;51.85;99556.44;2080727;28;19931;-40
2022/05/15 00:09:14;;;;;;;;;;;;;;;23.07;51.94;99554.72;2083321;28;19963;-40
2022/05/15 00:10:14;;;;;;;;;;;;;;;23.07;51.88;99557.47;2085003;28;19948;-41
2022/05/15 00:11:18;;;;;;;;;;;;;;;23.07;51.84;99560.22;2081729;28;20681;-40
2022/05/15 00:12:20;;;;;;;;;;;;;;;23.07;51.93;99562.13;2078666;28;19963;-40
2022/05/15 00:13:21;;;;;;;;;;;;;;;23.06;52.03;99560.41;2079082;28;19908;-40
2022/05/15 00:14:21;;;;;;;;;;;;;;;23.06;52.02;99561.25;2083338;28;20424;-40
2022/05/15 00:15:22;;;;;;;;;;;;;;;23.05;52.10;99555.94;2081183;28;20040;-40
2022/05/15 00:16:22;;;;;;;;;;;;;;;23.05;52.04;99567.81;2081597;28;19928;-40
2022/05/15 00:17:23;;;;;;;;;;;;;;;23.05;52.00;99565.06;2085862;28;19928;-40
2022/05/15 00:18:24;;;;;;;;;;;;;;;23.05;52.04;99559.56;2081463;28;19935;-40
2022/05/15 00:19:25;;;;;;;;;;;;;;;23.04;52.05;99563.34;2084274;28;19917;-40
2022/05/15 00:20:25;;;;;;;;;;;;;;;23.04;52.01;99563.34;2084514;28;19920;-40
2022/05/15 00:21:26;;;;;;;;;;;;;;;23.04;52.01;99552.34;2084740;28;19961;-40
2022/05/15 00:22:26;;;;;;;;;;;;;;;23.04;51.98;99557.84;2082418;28;19924;-40
2022/05/15 00:23:26;;;;;;;;;;;;;;;23.05;52.01;99554.06;2083503;28;20241;-39
2022/05/15 00:24:30;;;;;;;;;;;;;;;23.04;52.02;99552.34;2082115;28;19954;-40
2022/05/15 00:25:30;;;;;;;;;;;;;;;23.04;51.97;99552.34;2083488;28;20090;-40
2022/05/15 00:26:31;;;;;;;;;;;;;;;23.05;52.03;99544.94;2084107;28;19923;-40
2022/05/15 00:27:31;;;;;;;;;;;;;;;23.04;51.98;99552.34;2083534;28;19943;-40
2022/05/15 00:28:31;;;;;;;;;;;;;;;23.05;51.96;99550.44;2082986;28;20380;-40
2022/05/15 00:29:32;;;;;;;;;;;;;;;23.06;52.05;99546.69;2082519;28;19922;-40
2022/05/15 00:30:34;;;;;;;;;;;;;;;23.05;52.06;99542.19;2082604;28;19917;-39
2022/05/15 00:31:35;;;;;;;;;;;;;;;23.05;52.04;99553.19;2081559;28;19920;-40
2022/05/15 00:32:35;;;;;;;;;;;;;;;23.04;51.91;99546.84;2084332;28;19956;-40
2022/05/15 00:33:36;;;;;;;;;;;;;;;23.04;51.95;99549.59;2081056;28;19920;-40
2022/05/15 00:34:37;;;;;;;;;;;;;;;23.04;52.01;99546.84;2075230;28;20170;-40
2022/05/15 00:35:37;;;;;;;;;;;;;;;23.04;52.09;99555.09;2085211;28;19916;-40
2022/05/15 00:36:38;;;;;;;;;;;;;;;23.04;51.94;99548.75;2082143;28;19921;-40
2022/05/15 00:37:38;;;;;;;;;;;;;;;23.04;51.97;99543.25;2084192;28;19961;-40
2022/05/15 00:38:39;;;;;;;;;;;;;;;23.03;52.07;99539.66;2082888;28;19951;-40
2022/05/15 00:39:39;;;;;;;;;;;;;;;23.03;52.08;99544.31;2083169;28;20319;-41
2022/05/15 00:40:42;;;;;;;;;;;;;;;23.02;52.04;99537.94;2082988;28;20173;-40
2022/05/15 00:41:42;;;;;;;;;;;;;;;23.02;52.10;99543.44;2082854;28;20497;-40
2022/05/15 00:42:42;;;;;;;;;;;;;;;23.02;52.18;99537.94;2083847;28;19916;-40
2022/05/15 00:43:54;;;;;;;;;;;;;;;23.02;52.15;99535.19;2084786;28;19909;-40
2022/05/15 00:44:54;;;;;;;;;;;;;;;23.01;52.08;99536.25;2079056;28;19951;-40
2022/05/15 00:45:54;;;;;;;;;;;;;;;23.02;52.01;99531.59;2083307;28;19931;-40
2022/05/15 00:46:54;;;;;;;;;;;;;;;23.02;52.14;99537.09;2083135;28;19959;-40
2022/05/15 00:47:55;;;;;;;;;;;;;;;23.02;52.03;99534.34;2084986;28;20325;-40
2022/05/15 00:48:57;;;;;;;;;;;;;;;23.02;52.05;99526.09;2085309;28;19985;-40
2022/05/15 00:49:58;;;;;;;;;;;;;;;23.02;52.04;99526.09;2081880;28;19917;-40
2022/05/15 00:51:01;;;;;;;;;;;;;;;23.02;52.11;99526.94;2085634;28;19920;-40
2022/05/15 00:52:07;;;;;;;;;;;;;;;23.02;52.00;99524.19;2082553;28;19912;-40
2022/05/15 00:53:10;;;;;;;;;;;;;;;23.02;52.07;99531.59;2084278;28;19927;-39
2022/05/15 00:54:23;;;;;;;;;;;;;;;23.02;52.04;99528.84;2093185;28;20329;-40
2022/05/15 00:55:31;;;;;;;;;;;;;;;23.01;52.01;99519.75;2090817;28;20665;-40
2022/05/15 00:56:33;;;;;;;;;;;;;;;23.00;52.02;99518.03;2083304;28;20254;-40
2022/05/15 00:57:35;;;;;;;;;;;;;;;23.02;52.25;99520.59;2086019;28;20716;-40
2022/05/15 00:58:37;;;;;;;;;;;;;;;23.00;51.99;99515.28;2084384;28;19917;-40
2022/05/15 00:59:42;;;;;;;;;;;;;;;23.01;52.19;99517.00;2083866;28;19924;-40
2022/05/15 01:00:42;;;;;;;;;;;;;;;23.01;52.09;99514.25;2087749;28;19917;-40
2022/05/15 01:01:44;;;;;;;;;;;;;;;23.01;52.06;99522.50;2083113;28;19912;-40
2022/05/15 01:02:57;;;;;;;;;;;;;;;23.02;52.09;99523.34;2083901;28;20119;-40
2022/05/15 01:03:59;;;;;;;;;;;;;;;23.00;52.01;99508.94;2078489;28;19913;-40
2022/05/15 01:05:00;;;;;;;;;;;;;;;23.00;52.20;99515.28;2083683;28;20537;-40
2022/05/15 01:06:01;;;;;;;;;;;;;;;22.99;52.21;99510.00;2085170;28;20326;-40
2022/05/15 01:07:02;;;;;;;;;;;;;;;22.99;52.17;99513.59;2085489;28;19916;-40
2022/05/15 01:08:02;;;;;;;;;;;;;;;22.99;52.21;99512.75;2082632;28;20436;-40
2022/05/15 01:09:04;;;;;;;;;;;;;;;22.98;52.24;99506.41;2085903;28;19924;-40
2022/05/15 01:10:05;;;;;;;;;;;;;;;22.99;52.16;99508.09;2084250;28;19994;-40
2022/05/15 01:11:10;;;;;;;;;;;;;;;22.99;52.21;99504.50;2084131;28;19916;-40
2022/05/15 01:12:11;;;;;;;;;;;;;;;22.98;52.13;99506.41;2082201;28;19909;-40
2022/05/15 01:13:13;;;;;;;;;;;;;;;22.97;52.11;99501.88;2082680;28;19939;-40
2022/05/15 01:14:15;;;;;;;;;;;;;;;22.98;52.18;99500.91;2084450;28;19916;-40
2022/05/15 01:15:21;;;;;;;;;;;;;;;22.98;52.27;99500.03;2083733;28;19935;-40
2022/05/15 01:16:23;;;;;;;;;;;;;;;22.98;52.21;99503.66;2084294;28;19947;-40
2022/05/15 01:17:24;;;;;;;;;;;;;;;22.98;52.22;99503.66;2082288;28;20019;-40
2022/05/15 01:18:25;;;;;;;;;;;;;;;22.99;52.24;99494.34;2082475;28;20581;-40
2022/05/15 01:19:30;;;;;;;;;;;;;;;22.99;52.23;99499.00;2084444;28;19958;-40
2022/05/15 01:20:31;;;;;;;;;;;;;;;22.99;52.22;99499.84;2080070;28;19935;-40
2022/05/15 01:21:37;;;;;;;;;;;;;;;22.98;52.25;99492.66;2084121;28;20034;-40
2022/05/15 01:22:37;;;;;;;;;;;;;;;22.98;52.24;99492.66;2079384;28;20257;-40
2022/05/15 01:23:37;;;;;;;;;;;;;;;22.98;52.34;99489.91;2085912;28;19955;-40
2022/05/15 01:24:38;;;;;;;;;;;;;;;22.99;52.18;99499.00;2081796;28;20440;-40
2022/05/15 01:25:38;;;;;;;;;;;;;;;22.98;52.03;99489.91;2081804;28;19917;-40
2022/05/15 01:26:38;;;;;;;;;;;;;;;22.98;52.28;99487.16;2086304;28;20019;-40
2022/05/15 01:27:39;;;;;;;;;;;;;;;22.98;52.33;99489.91;2083971;28;19921;-39
2022/05/15 01:28:39;;;;;;;;;;;;;;;22.98;52.30;99487.16;2084471;28;19916;-39
2022/05/15 01:29:42;;;;;;;;;;;;;;;22.97;52.33;99474.41;2086352;28;20306;-41
2022/05/15 01:30:45;;;;;;;;;;;;;;;22.97;52.14;99479.91;2079811;28;19916;-40
2022/05/15 01:31:49;;;;;;;;;;;;;;;22.97;52.37;99474.41;2084926;28;19983;-40
2022/05/15 01:32:49;;;;;;;;;;;;;;;22.98;52.32;99481.66;2078471;28;19924;-40
2022/05/15 01:33:50;;;;;;;;;;;;;;;22.97;52.26;99473.56;2083138;28;20251;-40
2022/05/15 01:34:50;;;;;;;;;;;;;;;22.97;52.33;99474.41;2083784;28;19916;-40
2022/05/15 01:35:50;;;;;;;;;;;;;;;22.97;52.27;99468.91;2084764;28;20231;-40
2022/05/15 01:36:52;;;;;;;;;;;;;;;22.97;52.49;99468.06;2083701;28;19951;-40
2022/05/15 01:37:52;;;;;;;;;;;;;;;22.97;52.31;99468.06;2081900;28;20283;-40
2022/05/15 01:38:53;;;;;;;;;;;;;;;22.96;52.38;99461.72;2085570;28;20153;-40
2022/05/15 01:39:53;;;;;;;;;;;;;;;22.95;52.39;99460.00;2084150;28;20705;-40
2022/05/15 01:40:53;;;;;;;;;;;;;;;22.96;52.28;99464.47;2083936;28;19920;-40
2022/05/15 01:41:54;;;;;;;;;;;;;;;22.96;52.41;99458.13;2081202;28;20792;-40
2022/05/15 01:42:54;;;;;;;;;;;;;;;22.95;52.35;99459.16;2084690;28;20220;-40
2022/05/15 01:43:54;;;;;;;;;;;;;;;22.95;52.37;99460.00;2080985;28;19917;-40
2022/05/15 01:44:55;;;;;;;;;;;;;;;22.94;52.44;99458.31;2082503;28;19909;-40
2022/05/15 01:45:55;;;;;;;;;;;;;;;22.95;52.42;99453.66;2084432;28;19920;-40
2022/05/15 01:46:55;;;;;;;;;;;;;;;22.93;52.31;99451.13;2083359;28;19916;-40
2022/05/15 01:47:56;;;;;;;;;;;;;;;22.94;52.35;99447.31;2083859;28;19916;-40
2022/05/15 01:48:59;;;;;;;;;;;;;;;22.93;52.49;99448.38;2083515;28;20369;-40
2022/05/15 01:50:00;;;;;;;;;;;;;;;22.93;52.36;99439.25;2083082;28;19920;-40
2022/05/15 01:51:01;;;;;;;;;;;;;;;22.93;52.50;99439.25;2084603;28;20388;-40
2022/05/15 01:52:02;;;;;;;;;;;;;;;22.92;52.39;99441.16;2084785;28;19974;-40
2022/05/15 01:53:03;;;;;;;;;;;;;;;22.93;52.56;99440.13;2083238;28;19962;-40
2022/05/15 01:54:03;;;;;;;;;;;;;;;22.94;52.28;99436.31;2083650;28;19956;-40
2022/05/15 01:55:04;;;;;;;;;;;;;;;22.93;52.58;99431.88;2082282;28;19917;-40
2022/05/15 01:56:05;;;;;;;;;;;;;;;22.93;52.49;99434.63;2084324;28;20223;-40
2022/05/15 01:57:05;;;;;;;;;;;;;;;22.94;52.54;99440.97;2083852;28;19931;-40
2022/05/15 01:58:09;;;;;;;;;;;;;;;22.93;52.48;99442.88;2085641;28;19917;-40
2022/05/15 01:59:10;;;;;;;;;;;;;;;22.92;52.37;99430.16;2082681;28;19912;-40
2022/05/15 02:00:12;;;;;;;;;;;;;;;22.93;52.45;99428.25;2082189;28;20000;-40
2022/05/15 02:01:13;;;;;;;;;;;;;;;22.92;52.46;99421.91;2084108;28;19917;-40
2022/05/15 02:02:13;;;;;;;;;;;;;;;22.92;52.50;99423.81;2084504;28;19909;-40
2022/05/15 02:03:14;;;;;;;;;;;;;;;22.91;52.52;99417.47;2085000;28;19999;-40
2022/05/15 02:04:14;;;;;;;;;;;;;;;22.91;52.44;99420.22;2084227;28;20254;-40
2022/05/15 02:05:15;;;;;;;;;;;;;;;22.92;52.42;99426.56;2084866;28;20269;-40
2022/05/15 02:06:15;;;;;;;;;;;;;;;22.91;52.36;99425.72;2082486;28;19920;-40
2022/05/15 02:07:16;;;;;;;;;;;;;;;22.92;52.55;99432.06;2083088;28;19927;-40
2022/05/15 02:08:17;;;;;;;;;;;;;;;22.91;52.44;99422.97;2079675;28;19921;-40
2022/05/15 02:09:18;;;;;;;;;;;;;;;22.91;52.46;99431.22;2079478;28;19916;-40
2022/05/15 02:10:19;;;;;;;;;;;;;;;22.90;52.46;99429.50;2085472;28;19916;-40
2022/05/15 02:11:19;;;;;;;;;;;;;;;22.89;52.50;99425.06;2082642;28;20523;-40
2022/05/15 02:12:19;;;;;;;;;;;;;;;22.91;52.53;99431.22;2081700;28;20320;-40
2022/05/15 02:13:19;;;;;;;;;;;;;;;22.90;52.39;99426.75;2080704;28;19912;-40
2022/05/15 02:14:20;;;;;;;;;;;;;;;22.91;52.51;99442.19;2080724;28;19917;-40
2022/05/15 02:15:20;;;;;;;;;;;;;;;22.91;52.40;99436.72;2083330;28;19920;-40
2022/05/15 02:16:21;;;;;;;;;;;;;;;22.90;52.52;99438.56;2084135;28;20329;-41
2022/05/15 02:17:21;;;;;;;;;;;;;;;22.92;52.73;99445.78;2081826;28;19912;-40
2022/05/15 02:18:21;;;;;;;;;;;;;;;22.91;52.59;99442.19;2083125;28;20146;-40
2022/05/15 02:19:22;;;;;;;;;;;;;;;22.92;52.51;99438.41;2081594;28;19912;-40
2022/05/15 02:20:22;;;;;;;;;;;;;;;22.90;52.46;99441.31;2084008;28;19938;-40
2022/05/15 02:21:22;;;;;;;;;;;;;;;22.91;52.61;99439.47;2082154;28;19916;-40
2022/05/15 02:22:23;;;;;;;;;;;;;;;22.89;52.46;99430.53;2079459;28;19943;-41
2022/05/15 02:23:23;;;;;;;;;;;;;;;22.90;52.54;99434.97;2076146;28;19917;-40
2022/05/15 02:24:23;;;;;;;;;;;;;;;22.90;52.62;99432.22;2078175;28;20281;-40
2022/05/15 02:25:26;;;;;;;;;;;;;;;22.90;52.60;99429.50;2084330;28;19909;-40
2022/05/15 02:26:26;;;;;;;;;;;;;;;22.90;52.54;99434.97;2083556;28;19919;-40
2022/05/15 02:27:27;;;;;;;;;;;;;;;22.90;52.57;99432.22;2085190;28;20286;-40
2022/05/15 02:28:27;;;;;;;;;;;;;;;22.89;52.54;99427.78;2082299;28;20205;-40
2022/05/15 02:29:27;;;;;;;;;;;;;;;22.89;52.50;99427.78;2084599;28;20342;-40
2022/05/15 02:30:28;;;;;;;;;;;;;;;22.89;52.50;99433.28;2079109;28;20374;-40
2022/05/15 02:31:28;;;;;;;;;;;;;;;22.89;52.49;99433.28;2079746;28;19916;-40
2022/05/15 02:32:28;;;;;;;;;;;;;;;22.89;52.44;99430.53;2085741;28;20350;-40
2022/05/15 02:33:28;;;;;;;;;;;;;;;22.89;52.61;99427.78;2080231;28;19917;-40
2022/05/15 02:34:29;;;;;;;;;;;;;;;22.88;52.58;99431.56;2084090;28;19939;-41
2022/05/15 02:35:29;;;;;;;;;;;;;;;22.87;52.61;99436.22;2081561;28;19916;-40
2022/05/15 02:36:29;;;;;;;;;;;;;;;22.88;52.61;99428.81;2077624;28;20764;-40
2022/05/15 02:37:30;;;;;;;;;;;;;;;22.88;52.54;99437.06;2084046;28;19959;-40
2022/05/15 02:38:30;;;;;;;;;;;;;;;22.87;52.56;99429.88;2082028;28;19912;-40
2022/05/15 02:39:30;;;;;;;;;;;;;;;22.86;52.57;99423.53;2082587;28;19905;-40
2022/05/15 02:40:31;;;;;;;;;;;;;;;22.87;52.50;99429.88;2082196;28;19912;-40
2022/05/15 02:41:33;;;;;;;;;;;;;;;22.86;52.51;99428.19;2083210;28;19955;-40
2022/05/15 02:42:34;;;;;;;;;;;;;;;22.86;52.57;99420.78;2084856;28;19916;-40
2022/05/15 02:43:34;;;;;;;;;;;;;;;22.87;52.66;99413.38;2083953;28;19935;-40
2022/05/15 02:44:34;;;;;;;;;;;;;;;22.87;52.63;99418.88;2082384;28;19924;-40
2022/05/15 02:45:35;;;;;;;;;;;;;;;22.88;52.58;99415.09;2083210;28;19938;-40
2022/05/15 02:46:35;;;;;;;;;;;;;;;22.87;52.47;99414.22;2084352;28;19922;-40
2022/05/15 02:47:35;;;;;;;;;;;;;;;22.88;52.64;99409.59;2083255;28;19992;-40
2022/05/15 02:51:13;;;;;;;;;;;;;;;22.86;52.40;99409.78;2079856;28;19924;-40
2022/05/15 02:52:14;;;;;;;;;;;;;;;22.86;52.48;99408.94;2084437;28;19916;-41
2022/05/15 02:53:14;;;;;;;;;;;;;;;22.86;52.48;99407.06;2083112;28;19917;-40
2022/05/15 02:54:14;;;;;;;;;;;;;;;22.87;52.53;99413.38;2079212;28;20409;-40
2022/05/15 02:55:15;;;;;;;;;;;;;;;22.87;52.41;99407.91;2084759;28;19915;-40
2022/05/15 02:56:17;;;;;;;;;;;;;;;22.86;52.50;99407.06;2082300;28;19927;-40
2022/05/15 02:57:18;;;;;;;;;;;;;;;22.85;52.42;99409.97;2082226;28;20290;-40
2022/05/15 02:58:18;;;;;;;;;;;;;;;22.87;52.48;99407.91;2082083;28;19916;-40
2022/05/15 02:59:18;;;;;;;;;;;;;;;22.87;52.57;99410.63;2076208;28;20205;-40
2022/05/15 03:00:20;;;;;;;;;;;;;;;22.86;52.46;99409.78;2077815;28;19917;-40
2022/05/15 03:01:20;;;;;;;;;;;;;;;22.85;52.27;99408.06;2080698;28;19916;-40
2022/05/15 03:02:21;;;;;;;;;;;;;;;22.85;52.51;99407.22;2082875;28;19977;-40
2022/05/15 03:03:22;;;;;;;;;;;;;;;22.85;52.56;99405.31;2081018;28;20557;-40
2022/05/15 03:04:22;;;;;;;;;;;;;;;22.86;52.65;99407.06;2081082;28;19921;-40
2022/05/15 03:05:23;;;;;;;;;;;;;;;22.85;52.48;99404.47;2083521;28;20382;-40
2022/05/15 03:06:23;;;;;;;;;;;;;;;22.85;52.58;99398.97;2082650;28;19922;-40
2022/05/15 03:07:23;;;;;;;;;;;;;;;22.85;52.50;99408.06;2081345;28;19976;-40
2022/05/15 03:08:24;;;;;;;;;;;;;;;22.85;52.37;99409.97;2079708;28;20012;-40
2022/05/15 03:09:24;;;;;;;;;;;;;;;22.85;52.43;99409.97;2082852;28;19912;-40
2022/05/15 03:10:25;;;;;;;;;;;;;;;22.85;52.37;99409.97;2080276;28;21142;-40
2022/05/15 03:11:25;;;;;;;;;;;;;;;22.85;52.50;99409.97;2084247;28;19920;-40
2022/05/15 03:12:25;;;;;;;;;;;;;;;22.85;52.49;99409.97;2078970;28;20148;-40
2022/05/15 03:13:26;;;;;;;;;;;;;;;22.85;52.44;99409.97;2083578;28;20347;-40
2022/05/15 03:14:26;;;;;;;;;;;;;;;22.85;52.50;99415.47;2080883;28;19912;-40
2022/05/15 03:15:26;;;;;;;;;;;;;;;22.84;52.38;99409.13;2083193;28;19956;-39
2022/05/15 03:16:29;;;;;;;;;;;;;;;22.84;52.48;99411.03;2084904;28;19924;-39
2022/05/15 03:17:29;;;;;;;;;;;;;;;22.84;52.40;99409.13;2082236;28;20324;-39
2022/05/15 03:18:30;;;;;;;;;;;;;;;22.84;52.48;99411.03;2083182;28;19905;-39
2022/05/15 03:19:30;;;;;;;;;;;;;;;22.84;52.37;99408.28;2083913;28;20294;-40
2022/05/15 03:20:30;;;;;;;;;;;;;;;22.83;52.38;99409.31;2079004;28;20026;-39
2022/05/15 03:21:31;;;;;;;;;;;;;;;22.82;52.42;99400.22;2083346;28;20707;-39
2022/05/15 03:22:31;;;;;;;;;;;;;;;22.83;52.34;99406.56;2084266;28;20002;-39
2022/05/15 03:23:31;;;;;;;;;;;;;;;22.83;52.53;99401.06;2082721;28;20261;-39
2022/05/15 03:24:32;;;;;;;;;;;;;;;22.83;52.50;99398.31;2082985;28;19956;-39
2022/05/15 03:25:33;;;;;;;;;;;;;;;22.82;52.53;99400.22;2076562;28;19993;-39
2022/05/15 03:26:35;;;;;;;;;;;;;;;22.82;52.42;99408.47;2077740;28;19939;-39
2022/05/15 03:27:36;;;;;;;;;;;;;;;22.83;52.33;99406.56;2084223;28;20181;-39
2022/05/15 03:28:36;;;;;;;;;;;;;;;22.82;52.44;99396.63;2076509;28;20292;-39
2022/05/15 03:29:36;;;;;;;;;;;;;;;22.83;52.38;99401.06;2081108;28;19924;-39
2022/05/15 03:30:37;;;;;;;;;;;;;;;22.81;52.45;99404.03;2078492;28;20007;-39
2022/05/15 03:31:39;;;;;;;;;;;;;;;22.83;52.30;99401.06;2081000;28;20481;-39
2022/05/15 03:32:39;;;;;;;;;;;;;;;22.82;52.31;99405.72;2084671;28;20222;-39
2022/05/15 03:33:40;;;;;;;;;;;;;;;22.82;52.38;99402.97;2084151;28;19962;-39
2022/05/15 03:34:40;;;;;;;;;;;;;;;22.83;52.33;99409.31;2083507;28;20284;-39
2022/05/15 03:35:40;;;;;;;;;;;;;;;22.83;52.41;99409.31;2084430;28;19917;-39
2022/05/15 03:36:42;;;;;;;;;;;;;;;22.83;52.35;99406.56;2082947;28;20077;-39
2022/05/15 03:37:42;;;;;;;;;;;;;;;22.81;52.37;99401.28;2080881;28;19920;-39
2022/05/15 03:38:43;;;;;;;;;;;;;;;22.82;52.31;99407.63;2084058;28;20801;-39
2022/05/15 03:39:43;;;;;;;;;;;;;;;22.81;52.37;99401.28;2078854;28;20012;-39
2022/05/15 03:40:44;;;;;;;;;;;;;;;22.80;52.29;99405.06;2080211;28;20501;-39
2022/05/15 03:41:44;;;;;;;;;;;;;;;22.81;52.44;99409.53;2081503;28;19938;-39
2022/05/15 03:42:44;;;;;;;;;;;;;;;22.81;52.42;99397.69;2078877;28;19917;-39
2022/05/15 03:43:44;;;;;;;;;;;;;;;22.80;52.46;99406.94;2083282;28;19920;-39
2022/05/15 03:44:45;;;;;;;;;;;;;;;22.81;52.46;99408.69;2084151;28;19939;-39
2022/05/15 03:45:45;;;;;;;;;;;;;;;22.79;52.39;99403.34;2083502;28;19913;-39
2022/05/15 03:46:46;;;;;;;;;;;;;;;22.80;52.32;99407.78;2084079;28;19916;-39
2022/05/15 03:47:47;;;;;;;;;;;;;;;22.81;52.33;99405.94;2083296;28;19921;-39
2022/05/15 03:48:47;;;;;;;;;;;;;;;22.80;52.21;99395.97;2082814;28;20248;-39
2022/05/15 03:49:48;;;;;;;;;;;;;;;22.81;52.29;99405.94;2079908;28;19917;-39
2022/05/15 03:50:48;;;;;;;;;;;;;;;22.79;52.22;99402.50;2082281;28;19964;-40
2022/05/15 03:51:49;;;;;;;;;;;;;;;22.79;52.17;99408.84;2084322;28;20572;-39
2022/05/15 03:52:49;;;;;;;;;;;;;;;22.79;52.18;99399.75;2082217;28;19924;-39
2022/05/15 03:53:50;;;;;;;;;;;;;;;22.79;52.30;99402.50;2079602;28;19931;-40
2022/05/15 03:54:51;;;;;;;;;;;;;;;22.80;52.01;99404.19;2083899;28;19917;-40
2022/05/15 03:55:55;;;;;;;;;;;;;;;22.80;52.27;99407.78;2080574;28;19923;-40
2022/05/15 03:56:55;;;;;;;;;;;;;;;22.79;52.24;99413.50;2084105;28;20782;-40
2022/05/15 03:57:56;;;;;;;;;;;;;;;22.80;52.17;99409.69;2083042;28;19916;-40
2022/05/15 03:58:57;;;;;;;;;;;;;;;22.79;52.23;99406.09;2081993;28;19987;-40
2022/05/15 03:59:57;;;;;;;;;;;;;;;22.80;52.23;99420.69;2076497;28;19917;-40
2022/05/15 04:00:57;;;;;;;;;;;;;;;22.79;52.31;99419.00;2083196;28;19916;-40
2022/05/15 04:01:58;;;;;;;;;;;;;;;22.79;52.19;99410.75;2082332;28;19950;-39
2022/05/15 04:02:58;;;;;;;;;;;;;;;22.79;52.18;99410.75;2083541;28;20034;-39
2022/05/15 04:03:59;;;;;;;;;;;;;;;22.79;52.09;99416.25;2083127;28;19916;-40
2022/05/15 04:04:59;;;;;;;;;;;;;;;22.78;52.34;99415.38;2082773;28;20036;-40
2022/05/15 04:06:00;;;;;;;;;;;;;;;22.79;52.30;99421.75;2078051;28;19916;-40
2022/05/15 04:07:01;;;;;;;;;;;;;;;22.79;52.17;99421.75;2079173;28;20031;-40
2022/05/15 04:08:02;;;;;;;;;;;;;;;22.77;52.25;99421.06;2084846;28;20010;-40
2022/05/15 04:09:03;;;;;;;;;;;;;;;22.78;52.17;99422.78;2083297;28;19909;-40
2022/05/15 04:10:03;;;;;;;;;;;;;;;22.77;52.24;99424.66;2083145;28;20374;-40
2022/05/15 04:11:04;;;;;;;;;;;;;;;22.77;52.20;99418.31;2083315;28;19908;-40
2022/05/15 04:12:04;;;;;;;;;;;;;;;22.78;52.29;99422.78;2081207;28;19909;-40
2022/05/15 04:13:05;;;;;;;;;;;;;;;22.77;52.23;99418.31;2078043;28;19909;-40
2022/05/15 04:14:06;;;;;;;;;;;;;;;22.76;52.30;99422.97;2080092;28;19916;-40
2022/05/15 04:15:07;;;;;;;;;;;;;;;22.76;52.15;99417.47;2084718;28;19917;-40
2022/05/15 04:16:07;;;;;;;;;;;;;;;22.76;52.09;99416.59;2081997;28;20374;-40
2022/05/15 04:17:08;;;;;;;;;;;;;;;22.75;52.04;99415.75;2084878;28;19942;-40
2022/05/15 04:18:11;;;;;;;;;;;;;;;22.76;52.16;99413.84;2085373;28;20665;-40
2022/05/15 04:19:11;;;;;;;;;;;;;;;22.75;52.22;99415.75;2084572;28;19924;-40
2022/05/15 04:20:13;;;;;;;;;;;;;;;22.75;52.20;99407.53;2082083;28;20274;-40
2022/05/15 04:21:13;;;;;;;;;;;;;;;22.77;52.13;99412.84;2077686;28;19909;-40
2022/05/15 04:22:13;;;;;;;;;;;;;;;22.76;52.10;99413.84;2082684;28;20256;-40
2022/05/15 04:23:14;;;;;;;;;;;;;;;22.77;51.99;99418.31;2080985;28;19962;-40
2022/05/15 04:24:15;;;;;;;;;;;;;;;22.76;52.10;99416.59;2081291;28;19924;-40
2022/05/15 04:25:16;;;;;;;;;;;;;;;22.75;52.09;99409.41;2083061;28;19912;-40
2022/05/15 04:26:17;;;;;;;;;;;;;;;22.75;51.97;99410.25;2084382;28;19940;-40
2022/05/15 04:27:17;;;;;;;;;;;;;;;22.75;51.96;99415.75;2086469;28;19917;-40
2022/05/15 04:28:18;;;;;;;;;;;;;;;22.76;52.01;99416.59;2080779;28;19927;-40
2022/05/15 04:29:18;;;;;;;;;;;;;;;22.75;51.99;99409.41;2079344;28;19923;-40
2022/05/15 04:30:23;;;;;;;;;;;;;;;22.76;52.02;99405.63;2078785;28;20525;-40
2022/05/15 04:31:24;;;;;;;;;;;;;;;22.76;52.08;99413.84;2080938;28;19916;-40
2022/05/15 04:32:24;;;;;;;;;;;;;;;22.75;52.02;99412.16;2077704;28;19920;-40
2022/05/15 04:33:24;;;;;;;;;;;;;;;22.76;51.86;99405.63;2081418;28;19916;-40
2022/05/15 04:34:26;;;;;;;;;;;;;;;22.75;52.00;99407.53;2087490;28;19916;-40
2022/05/15 04:35:26;;;;;;;;;;;;;;;22.75;51.92;99409.41;2085095;28;19920;-40
2022/05/15 04:36:27;;;;;;;;;;;;;;;22.75;51.96;99409.41;2085186;28;21380;-40
2022/05/15 04:37:27;;;;;;;;;;;;;;;22.75;51.90;99409.41;2086274;28;20306;-40
2022/05/15 04:38:27;;;;;;;;;;;;;;;22.75;51.84;99409.41;2084476;28;19924;-40
2022/05/15 04:39:32;;;;;;;;;;;;;;;22.74;51.80;99407.72;2079602;28;19991;-40
2022/05/15 04:40:32;;;;;;;;;;;;;;;22.75;51.90;99412.16;2081331;28;19919;-40
2022/05/15 04:41:32;;;;;;;;;;;;;;;22.75;51.92;99409.41;2084483;28;19913;-40
2022/05/15 04:42:33;;;;;;;;;;;;;;;22.75;51.86;99414.91;2086168;28;20065;-40
2022/05/15 04:43:33;;;;;;;;;;;;;;;22.75;51.85;99418.50;2082323;28;19909;-40
2022/05/15 04:44:33;;;;;;;;;;;;;;;22.74;51.76;99413.22;2085252;28;19912;-40
2022/05/15 04:45:34;;;;;;;;;;;;;;;22.74;51.84;99413.22;2084548;28;20385;-39
2022/05/15 04:46:34;;;;;;;;;;;;;;;22.75;51.78;99417.66;2083316;28;19923;-40
2022/05/15 04:47:35;;;;;;;;;;;;;;;22.73;51.92;99411.50;2084585;28;19917;-40
2022/05/15 04:48:36;;;;;;;;;;;;;;;22.73;51.81;99417.00;2082826;28;20049;-40
2022/05/15 04:49:36;;;;;;;;;;;;;;;22.73;51.87;99412.34;2085673;28;19920;-40
2022/05/15 04:50:40;;;;;;;;;;;;;;;22.73;51.80;99411.50;2084390;28;19909;-40
2022/05/15 04:51:40;;;;;;;;;;;;;;;22.72;51.78;99415.31;2084617;28;20894;-40
2022/05/15 04:52:40;;;;;;;;;;;;;;;22.73;51.66;99422.50;2078448;28;20259;-39
2022/05/15 04:53:40;;;;;;;;;;;;;;;22.72;51.76;99423.53;2083338;28;19916;-40
2022/05/15 04:54:41;;;;;;;;;;;;;;;22.72;51.68;99420.81;2083743;28;19909;-40
2022/05/15 04:55:41;;;;;;;;;;;;;;;22.72;51.78;99420.81;2084406;28;19923;-40
2022/05/15 04:56:42;;;;;;;;;;;;;;;22.71;51.80;99422.69;2082193;28;20519;-40
2022/05/15 04:57:42;;;;;;;;;;;;;;;22.72;51.75;99429.03;2078833;28;19924;-40
2022/05/15 04:58:43;;;;;;;;;;;;;;;22.71;51.75;99425.44;2083847;28;20423;-40
2022/05/15 04:59:43;;;;;;;;;;;;;;;22.71;51.59;99433.69;2083950;28;20379;-40
2022/05/15 05:00:43;;;;;;;;;;;;;;;22.71;51.65;99425.44;2085734;28;20278;-40
2022/05/15 05:01:44;;;;;;;;;;;;;;;22.72;51.51;99431.78;2083138;28;19916;-39
2022/05/15 05:02:45;;;;;;;;;;;;;;;22.72;51.72;99431.78;2084392;28;19909;-40
2022/05/15 05:03:45;;;;;;;;;;;;;;;22.71;51.62;99430.06;2085282;28;19912;-40
2022/05/15 05:04:45;;;;;;;;;;;;;;;22.72;51.39;99426.28;2083926;28;19962;-39
2022/05/15 05:05:46;;;;;;;;;;;;;;;22.71;51.45;99441.94;2078021;28;20095;-40
2022/05/15 05:06:46;;;;;;;;;;;;;;;22.71;51.55;99432.81;2077616;28;20277;-40
2022/05/15 05:07:46;;;;;;;;;;;;;;;22.71;51.45;99441.06;2079212;28;19916;-40
2022/05/15 05:08:47;;;;;;;;;;;;;;;22.72;51.60;99442.78;2085289;28;20049;-40
2022/05/15 05:09:47;;;;;;;;;;;;;;;22.71;51.41;99446.53;2082290;28;20350;-40
2022/05/15 05:10:48;;;;;;;;;;;;;;;22.72;51.58;99442.78;2081826;28;19917;-40
2022/05/15 05:11:48;;;;;;;;;;;;;;;22.72;51.47;99448.28;2086225;28;19955;-40
2022/05/15 05:12:48;;;;;;;;;;;;;;;22.71;51.51;99446.53;2084020;28;20561;-39
2022/05/15 05:13:49;;;;;;;;;;;;;;;22.72;51.58;99453.75;2086538;28;19924;-40
2022/05/15 05:14:49;;;;;;;;;;;;;;;22.71;51.57;99446.53;2081896;28;19927;-41
2022/05/15 05:15:50;;;;;;;;;;;;;;;22.69;51.60;99453.09;2084820;28;20394;-40
2022/05/15 05:16:50;;;;;;;;;;;;;;;22.69;51.40;99450.34;2084156;28;19916;-41
2022/05/15 05:17:50;;;;;;;;;;;;;;;22.68;51.61;99454.16;2082371;28;19916;-40
2022/05/15 05:18:51;;;;;;;;;;;;;;;22.69;51.50;99444.84;2082918;28;19983;-40
2022/05/15 05:19:51;;;;;;;;;;;;;;;22.68;51.33;99454.16;2084833;28;19923;-40
2022/05/15 05:20:51;;;;;;;;;;;;;;;22.68;51.37;99454.16;2085717;28;19958;-40